Agate, Colorado
Current Conditions -  °F | °C
As of 11:55 PM on Sunday 21 Dec 2014 (Local Time) from KLIC Reporting Station
Overcast Overcast  
Wind Chill: 21°   Ceiling: 7000
Heat Index: 32°   Visibility: 10mi
Dew Point: 30°   Wind: 17mph
Humidity: 92%   Direction: 330°NNW
Pressure: 29.67"   Gusts: NA
Location:  39.46°N, 103.94°W
Report Text: KLIC 220655Z AUTO 33015KT 10SM FEW044 BKN070 OVC090 00/M01 A2967 RMK AO2 PK WND 35035/0609 UPB31E37SNE31 SLP031 P0002 T00001011 401171094
Loading
Personal Weather Stations






























Interactive Weather Map New forecast layout! Learn more

10-Day Weather Forecast

Advertisements
Track Severe Weather on mobile